Terminal Aerodrome Forecast
Issued by NWS

Home | Current Version | Previous Version | Text Only | Print | Product List | Glossary On
Versions: 1 2 3 4 5 6 7 8 9 10 11 12 13 14 15 16 17 18 19 20 21 22 23 24 25 26 27 28 29 30
000
FTUS43 KDMX 230755 AAA
TAFOTM
TAF AMD
KOTM 230755Z 2308/2406 25006KT 4SM BR OVC006
      TEMPO 2308/2312 2SM BR SCT003 OVC025
     FM231300 28008KT 2SM BR BKN006
     FM231700 30009KT P6SM BKN040 BKN130
     FM240200 01005KT P6SM SCT190=

USA.gov is the U.S. government's official web portal to all federal, state and local government web resources and services.